Flight Track Log - Related Links

Times and Time Zones

All times are in EDT time to prevent confusion due to time zone crossing. See the DAL268 flight status page for this flight to view local times or setup timezone preferences in your user account.

Time Position Orientation Groundspeed Altitude Reporting Facility
EDT Latitude Longitude Course Direction KTS MPH feet Rate Location/Type
Fri 02:34:52 PM 37.6470 -122.3460 41° Northeast 182 209 1,600  Level FlightAware ADS-B
Fri 02:35:04 PM 37.6544 -122.3360 47° Northeast 195 224 2,000 2,000 Climbing FlightAware ADS-B
Fri 02:35:19 PM 37.6641 -122.3230 47° Northeast 206 237 2,500 1,742 Climbing FlightAware ADS-B
Fri 02:35:35 PM 37.6752 -122.3070 49° Northeast 234 269 2,900 1,688 Climbing FlightAware ADS-B
Fri 02:35:51 PM 37.6868 -122.2910 48° Northeast 252 290 3,400 2,400 Climbing FlightAware ADS-B
Fri 02:36:10 PM 37.7024 -122.2690 48° Northeast 261 300 4,300 2,842 Climbing FlightAware ADS-B
Fri 02:36:29 PM 37.7175 -122.2470 49° Northeast 269 310 5,200 3,184 Climbing FlightAware ADS-B
Fri 02:36:59 PM 37.7424 -122.2110 49° Northeast 274 315 6,900 3,319 Climbing FlightAware ADS-B
Fri 02:37:16 PM 37.7564 -122.1910 48° Northeast 277 319 7,800 3,231 Climbing FlightAware ADS-B
Fri 02:37:25 PM 37.7643 -122.1800 48° Northeast 278 320 8,300 3,200 Climbing FlightAware ADS-B
Fri 02:37:31 PM 37.7692 -122.1720 52° Northeast 278 320 8,600 2,727 Climbing FlightAware ADS-B
Fri 02:37:36 PM 37.7727 -122.1650 58° Northeast 279 321 8,800 2,800 Climbing FlightAware ADS-B
Fri 02:37:46 PM 37.7785 -122.1500 64° Northeast 281 323 9,300 2,824 Climbing FlightAware ADS-B
Fri 02:37:53 PM 37.7818 -122.1390 69° East 282 325 9,600 2,500 Climbing FlightAware ADS-B
Fri 02:37:58 PM 37.7840 -122.1310 71° East 283 326 9,800 1,459 Climbing FlightAware ADS-B
Fri 02:38:30 PM 37.7983 -122.0800 70° East 320 368 10,500 1,258 Climbing FlightAware ADS-B
Fri 02:39:00 PM 37.8137 -122.0230 71° East 352 405 11,100 1,429 Climbing FlightAware ADS-B
Fri 02:39:33 PM 37.8309 -121.9560 72° East 377 434 12,000 1,905 Climbing FlightAware ADS-B
Fri 02:40:03 PM 37.8478 -121.8920 71° East 390 449 13,100 1,900 Climbing FlightAware ADS-B
Fri 02:40:33 PM 37.8653 -121.8250 72° East 409 471 13,900 1,770 Climbing FlightAware ADS-B
Fri 02:41:04 PM 37.8837 -121.7540 72° East 422 486 14,900 2,344 Climbing FlightAware ADS-B
Fri 02:41:37 PM 37.9036 -121.6760 72° East 420 483 16,400 2,571 Climbing FlightAware ADS-B
Fri 02:42:07 PM 37.9217 -121.6060 72° East 422 486 17,600 2,300 Climbing FlightAware ADS-B
Fri 02:42:37 PM 37.9400 -121.5350 72° East 427 491 18,700 2,000 Climbing FlightAware ADS-B
Fri 02:43:07 PM 37.9586 -121.4620 72° East 434 499 19,600 1,808 Climbing FlightAware ADS-B
Fri 02:43:50 PM 37.9850 -121.3580 72° East 443 510 20,900 1,792 Climbing FlightAware ADS-B
Fri 02:44:24 PM 38.0070 -121.2730 72° East 450 518 21,900 1,714 Climbing FlightAware ADS-B
Fri 02:45:00 PM 38.0300 -121.1810 72° East 456 525 22,900 1,562 Climbing FlightAware ADS-B
Fri 02:45:37 PM 38.0530 -121.0880 73° East 463 533 23,800 1,612 Climbing FlightAware ADS-B
Fri 02:46:07 PM 38.0720 -121.0110 73° East 466 536 24,700 1,600 Climbing FlightAware ADS-B
Fri 02:46:52 PM 38.0950 -120.8960 76° East 468 539 25,800 1,407 Climbing FlightAware ADS-B
Fri 02:47:28 PM 38.1140 -120.7920 77° East 474 545 26,600 1,371 Climbing FlightAware ADS-B
Fri 02:48:02 PM 38.1310 -120.6990 77° East 475 547 27,400 1,676 Climbing FlightAware ADS-B
Fri 02:48:36 PM 38.1470 -120.6060 78° East 471 542 28,500 1,853 Climbing FlightAware ADS-B
Fri 02:49:10 PM 38.1630 -120.5170 77° East 464 534 29,500 1,726 Climbing FlightAware ADS-B
Fri 02:49:49 PM 38.1820 -120.4150 77° East 461 531 30,600 1,543 Climbing FlightAware ADS-B
Fri 02:50:20 PM 38.1960 -120.3310 78° East 461 531 31,300 1,478 Climbing FlightAware ADS-B
Fri 02:50:58 PM 38.2140 -120.2320 77° East 454 522 32,300 1,800 Climbing FlightAware ADS-B
Fri 02:51:10 PM 38.2160 -120.2201 78° East 451 519 32,800 977 Climbing FlightAware ADS-B
Fri 02:51:41 PM 38.2257 -120.1658 77° East 457 526 33,000 649 Climbing FlightAware ADS-B
Fri 02:52:24 PM 38.2529 -120.0100 77° East 460 529 33,600 645 Climbing FlightAware ADS-B
Fri 02:53:14 PM 38.2760 -119.8770 77° East 462 532 34,000 565 Climbing FlightAware ADS-B
Fri 02:53:49 PM 38.2924 -119.7821 78° East 471 542 34,400 845 Climbing FlightAware ADS-B
Fri 02:54:25 PM 38.3090 -119.6860 78° East 469 540 35,000 1,038 Climbing FlightAware ADS-B
Fri 02:54:41 PM 38.3042 -119.7133 258° West 469 540 35,300 873 Climbing FlightAware ADS-B
Fri 02:55:20 PM 38.3339 -119.5394 78° East 472 543 35,800 774 Climbing FlightAware ADS-B
Fri 02:56:14 PM 38.3590 -119.3905 78° East 478 550 36,500 706 Climbing FlightAware ADS-B
Fri 02:56:45 PM 38.3734 -119.3055 78° East 480 552 36,800 455 Climbing FlightAware ADS-B
Fri 02:57:20 PM 38.3899 -119.2068 78° East 483 556 37,000 185 Climbing FlightAware ADS-B
Fri 02:57:50 PM 38.4034 -119.1253 78° East 481 554 37,000  Level FlightAware ADS-B
Fri 02:58:32 PM 38.4230 -119.0072 78° East 479 551 37,000  Level FlightAware ADS-B
Fri 02:59:02 PM 38.4366 -118.9242 78° East 479 551 37,000  Level FlightAware ADS-B
Fri 02:59:39 PM 38.4520 -118.8280 78° East 480 552 37,000  Level FlightAware ADS-B
Fri 03:00:15 PM 38.4690 -118.7240 78° East 479 551 37,000  Level FlightAware ADS-B
Fri 03:00:51 PM 38.4840 -118.6320 78° East 479 551 37,000  Level FlightAware ADS-B
Fri 03:01:26 PM 38.5010 -118.5300 78° East 480 552 37,000  Level FlightAware ADS-B
Fri 03:02:00 PM 38.5160 -118.4340 79° East 480 552 37,000  Level FlightAware ADS-B
Fri 03:02:36 PM 38.5320 -118.3330 79° East 481 554 37,000  Level FlightAware ADS-B
Fri 03:03:13 PM 38.5480 -118.2300 79° East 479 551 37,000  Level FlightAware ADS-B
Fri 03:03:43 PM 38.5620 -118.1470 78° East 476 548 37,000  Level FlightAware ADS-B
Fri 03:04:23 PM 38.5780 -118.0400 79° East 475 547 37,000  Level FlightAware ADS-B
Fri 03:05:12 PM 38.5980 -117.9190 78° East 475 547 37,000  Level FlightAware ADS-B
Fri 03:05:46 PM 38.6110 -117.8390 78° East 475 547 37,000  Level FlightAware ADS-B
Fri 03:06:21 PM 38.6240 -117.7570 79° East 475 547 37,000  Level FlightAware ADS-B
Fri 03:06:55 PM 38.6380 -117.6780 77° East 475 547 37,000  Level FlightAware ADS-B
Fri 03:07:33 PM 38.6520 -117.5890 79° East 475 547 37,000  Level FlightAware ADS-B
Fri 03:08:09 PM 38.6660 -117.5050 78° East 475 547 37,000  Level FlightAware ADS-B
Fri 03:08:45 PM 38.6800 -117.4210 78° East 475 547 37,000  Level FlightAware ADS-B
Fri 03:09:23 PM 38.6950 -117.3320 78° East 475 547 37,000  Level FlightAware ADS-B
Fri 03:10:00 PM 38.7090 -117.2450 78° East 475 547 37,000  Level FlightAware ADS-B
Fri 03:10:38 PM 38.7240 -117.1560 78° East 475 547 37,000  Level FlightAware ADS-B
Fri 03:11:27 PM 38.7430 -117.0410 78° East 475 547 37,000  Level FlightAware ADS-B
Fri 03:12:03 PM 38.7570 -116.9570 78° East 475 547 37,000  Level FlightAware ADS-B
Fri 03:12:40 PM 38.7720 -116.8700 78° East 475 547 37,000  Level FlightAware ADS-B
Fri 03:13:16 PM 38.7860 -116.7860 78° East 475 547 37,000  Level FlightAware ADS-B
Fri 03:13:52 PM 38.7990 -116.7010 79° East 475 547 37,000  Level FlightAware ADS-B
Fri 03:14:28 PM 38.8130 -116.6170 78° East 475 547 37,000  Level FlightAware ADS-B
Fri 03:15:29 PM 38.8486 -116.2014 78° East 479 551 37,000  Level Salt Lake Center
Fri 03:16:31 PM 38.8711 -116.0331 80° East 478 550 37,000  Level Salt Lake Center
Fri 03:17:33 PM 38.8953 -115.8678 79° East 473 544 37,000  Level Salt Lake Center
Fri 03:18:35 PM 38.9172 -115.6989 80° East 477 549 37,000  Level Salt Lake Center
Fri 03:19:37 PM 38.9394 -115.5308 80° East 476 548 37,000  Level Salt Lake Center
Fri 03:20:39 PM 38.9647 -115.3439 80° East 483 556 37,000  Level Salt Lake Center
Fri 03:21:41 PM 38.9881 -115.1747 80° East 483 556 37,000  Level Salt Lake Center
Fri 03:22:43 PM 39.0092 -115.0050 81° East 481 554 37,000  Level Salt Lake Center
Fri 03:29:02 PM 39.1442 -113.9138 81° East 469 540 37,000  Level FlightAware ADS-B
Fri 03:29:32 PM 39.1543 -113.8283 81° East 468 539 37,000  Level FlightAware ADS-B
Fri 03:30:05 PM 39.1649 -113.7386 81° East 469 540 37,000  Level FlightAware ADS-B
Fri 03:31:08 PM 39.1849 -113.5658 81° East 474 545 37,000  Level FlightAware ADS-B
Fri 03:31:38 PM 39.1947 -113.4806 82° East 475 547 37,000  Level FlightAware ADS-B
Fri 03:32:08 PM 39.2040 -113.3990 82° East 472 543 37,000  Level FlightAware ADS-B
Fri 03:32:40 PM 39.2142 -113.3087 82° East 470 541 37,000  Level FlightAware ADS-B
Fri 03:33:32 PM 39.2304 -113.1650 82° East 470 541 37,000  Level FlightAware ADS-B
Fri 03:33:58 PM 39.2386 -113.0910 82° East 468 539 37,000  Level FlightAware ADS-B
Fri 03:34:12 PM 39.2426 -113.0552 82° East 466 536 37,000  Level FlightAware ADS-B
Fri 03:34:31 PM 39.2484 -113.0030 82° East 465 535 37,000  Level FlightAware ADS-B
Fri 03:34:42 PM 39.2517 -112.9729 82° East 464 534 37,000  Level FlightAware ADS-B
Fri 03:35:02 PM 39.2578 -112.9170 82° East 465 535 37,000  Level FlightAware ADS-B
Fri 03:35:13 PM 39.2611 -112.8872 82° East 466 536 37,000  Level FlightAware ADS-B
Fri 03:35:35 PM 39.2677 -112.8270 82° East 464 534 37,000  Level FlightAware ADS-B
Fri 03:36:14 PM 39.2792 -112.7210 82° East 462 532 37,000  Level FlightAware ADS-B
Fri 03:36:28 PM 39.2832 -112.6835 82° East 462 532 37,000  Level FlightAware ADS-B
Fri 03:36:47 PM 39.2891 -112.6290 82° East 462 532 37,000  Level FlightAware ADS-B
Fri 03:36:58 PM 39.2920 -112.6017 82° East 464 534 37,000  Level FlightAware ADS-B
Fri 03:37:18 PM 39.2983 -112.5460 82° East 465 535 37,000  Level FlightAware ADS-B
Fri 03:37:30 PM 39.3029 -112.5139 79° East 466 536 37,000  Level FlightAware ADS-B
Fri 03:37:32 PM 39.3041 -112.5070 78° East 466 536 37,000  Level FlightAware ADS-B
Fri 03:37:54 PM 39.3156 -112.4470 76° East 466 536 37,000  Level FlightAware ADS-B
Fri 03:38:07 PM 39.3232 -112.4130 74° East 469 540 37,000  Level FlightAware ADS-B
Fri 03:38:20 PM 39.3298 -112.3770 77° East 471 542 37,000  Level FlightAware ADS-B
Fri 03:38:27 PM 39.3327 -112.3579 79° East 472 543 37,000  Level FlightAware ADS-B
Fri 03:38:51 PM 39.3429 -112.2930 79° East 475 547 37,000  Level FlightAware ADS-B
Fri 03:39:08 PM 39.3507 -112.2459 78° East 474 545 37,000  Level FlightAware ADS-B
Fri 03:39:21 PM 39.3568 -112.2100 78° East 472 543 37,000  Level FlightAware ADS-B
Fri 03:39:51 PM 39.3717 -112.1270 77° East 471 542 37,000  Level FlightAware ADS-B
Fri 03:40:03 PM 39.3777 -112.0947 76° East 471 542 37,000  Level FlightAware ADS-B
Fri 03:40:21 PM 39.3871 -112.0440 76° East 471 542 37,000  Level FlightAware ADS-B
Fri 03:40:33 PM 39.3920 -112.0181 76° East 469 540 37,000  Level FlightAware ADS-B
Fri 03:40:51 PM 39.4023 -111.9630 76° East 466 536 37,000  Level FlightAware ADS-B
Fri 03:41:03 PM 39.4079 -111.9336 76° East 466 536 37,000  Level FlightAware ADS-B
Fri 03:41:21 PM 39.4177 -111.8810 76° East 466 536 37,000  Level FlightAware ADS-B
Fri 03:41:42 PM 39.4282 -111.8247 76° East 466 536 37,000  Level FlightAware ADS-B
Fri 03:41:52 PM 39.4329 -111.8000 76° East 466 536 37,000  Level FlightAware ADS-B
Fri 03:42:13 PM 39.4425 -111.7476 77° East 467 537 37,000  Level FlightAware ADS-B
Fri 03:42:30 PM 39.4518 -111.6970 77° East 468 539 37,000  Level FlightAware ADS-B
Fri 03:43:00 PM 39.4669 -111.6130 77° East 471 542 37,000  Level FlightAware ADS-B
Fri 03:43:31 PM 39.4819 -111.5290 77° East 469 540 37,000  Level FlightAware ADS-B
Fri 03:44:01 PM 39.4965 -111.4480 77° East 467 537 37,000  Level FlightAware ADS-B
Fri 03:44:04 PM 39.4974 -111.4426 78° East 467 537 37,000  Level FlightAware ADS-B
Fri 03:44:31 PM 39.5113 -111.3650 77° East 469 540 37,000  Level FlightAware ADS-B
Fri 03:44:37 PM 39.5137 -111.3518 77° East 469 540 37,000  Level FlightAware ADS-B
Fri 03:45:02 PM 39.5260 -111.2820 77° East 469 540 37,000  Level FlightAware ADS-B
Fri 03:45:07 PM 39.5281 -111.2704 77° East 469 540 37,000  Level FlightAware ADS-B
Fri 03:45:32 PM 39.5404 -111.2000 77° East 467 537 37,000  Level FlightAware ADS-B
Fri 03:45:39 PM 39.5426 -111.1874 77° East 466 536 37,000  Level FlightAware ADS-B
Fri 03:46:02 PM 39.5549 -111.1180 77° East 465 535 37,000  Level FlightAware ADS-B
Fri 03:46:09 PM 39.5578 -111.1010 77° East 465 535 37,000  Level FlightAware ADS-B
Fri 03:46:40 PM 39.5732 -111.0138 77° East 471 542 37,000  Level FlightAware ADS-B
Fri 03:47:03 PM 39.5839 -110.9530 77° East 476 548 37,000  Level FlightAware ADS-B
Fri 03:47:13 PM 39.5885 -110.9262 78° East 477 549 37,000  Level FlightAware ADS-B
Fri 03:47:44 PM 39.6032 -110.8409 77° East 482 555 37,000  Level FlightAware ADS-B
Fri 03:48:14 PM 39.6182 -110.7535 77° East 479 551 37,000  Level FlightAware ADS-B
Fri 03:48:51 PM 39.6361 -110.6492 77° East 480 552 37,000  Level FlightAware ADS-B
Fri 03:49:21 PM 39.6506 -110.5644 77° East 478 550 37,000  Level FlightAware ADS-B
Fri 03:49:54 PM 39.6662 -110.4724 78° East 477 549 37,000  Level FlightAware ADS-B
Fri 03:50:24 PM 39.6802 -110.3897 78° East 477 549 37,000  Level FlightAware ADS-B
Fri 03:50:55 PM 39.6944 -110.3057 78° East 478 550 37,000  Level FlightAware ADS-B
Fri 03:51:25 PM 39.7090 -110.2182 78° East 478 550 37,000  Level FlightAware ADS-B
Fri 03:51:57 PM 39.7240 -110.1284 78° East 478 550 37,000  Level FlightAware ADS-B
Fri 03:52:27 PM 39.7375 -110.0464 78° East 473 544 37,000  Level FlightAware ADS-B
Fri 03:53:01 PM 39.7530 -109.9529 78° East 469 540 37,000  Level FlightAware ADS-B
Fri 03:53:31 PM 39.7662 -109.8725 78° East 467 537 37,000  Level FlightAware ADS-B
Fri 03:54:02 PM 39.7804 -109.7854 78° East 468 539 37,000  Level FlightAware ADS-B
Fri 03:54:43 PM 39.7984 -109.6749 78° East 469 540 37,000  Level FlightAware ADS-B
Fri 03:55:16 PM 39.8134 -109.5815 78° East 472 543 37,000  Level FlightAware ADS-B
Fri 03:55:48 PM 39.8272 -109.4963 78° East 470 541 37,000  Level FlightAware ADS-B
Fri 03:56:28 PM 39.8452 -109.3833 78° East 469 540 37,000  Level FlightAware ADS-B
Fri 03:57:00 PM 39.8591 -109.2958 78° East 470 541 37,000  Level FlightAware ADS-B
Fri 03:57:30 PM 39.8720 -109.2137 78° East 471 542 37,000  Level FlightAware ADS-B
Fri 03:58:03 PM 39.8869 -109.1193 78° East 472 543 37,000  Level FlightAware ADS-B
Fri 03:58:33 PM 39.8995 -109.0389 78° East 474 545 37,000  Level FlightAware ADS-B
Fri 03:59:06 PM 39.9132 -108.9501 79° East 474 545 37,000  Level FlightAware ADS-B
Fri 03:59:36 PM 39.9266 -108.8637 79° East 475 547 37,000  Level FlightAware ADS-B
Fri 04:00:09 PM 39.9412 -108.7690 79° East 473 544 37,000  Level FlightAware ADS-B
Fri 04:00:41 PM 39.9545 -108.6812 79° East 472 543 37,000  Level FlightAware ADS-B
Fri 04:01:13 PM 39.9681 -108.5912 79° East 471 542 37,000  Level FlightAware ADS-B
Fri 04:01:53 PM 39.9849 -108.4807 79° East 469 540 37,000  Level FlightAware ADS-B
Fri 04:02:24 PM 39.9978 -108.3954 79° East 467 537 37,000  Level FlightAware ADS-B
Fri 04:02:54 PM 40.0100 -108.3146 79° East 471 542 37,000  Level FlightAware ADS-B
Fri 04:03:27 PM 40.0236 -108.2234 79° East 477 549 37,000  Level FlightAware ADS-B
Fri 04:03:57 PM 40.0369 -108.1337 79° East 474 545 37,000  Level FlightAware ADS-B
Fri 04:04:29 PM 40.0498 -108.0454 79° East 470 541 37,000  Level FlightAware ADS-B
Fri 04:04:59 PM 40.0621 -107.9617 79° East 471 542 37,000  Level FlightAware ADS-B
Fri 04:05:32 PM 40.0763 -107.8685 79° East 480 552 37,000  Level FlightAware ADS-B
Fri 04:06:02 PM 40.0909 -107.7844 77° East 484 557 37,000  Level FlightAware ADS-B
Fri 04:06:35 PM 40.1071 -107.6906 77° East 485 558 37,000  Level FlightAware ADS-B
Fri 04:07:05 PM 40.1213 -107.6065 77° East 484 557 37,000  Level FlightAware ADS-B
Fri 04:07:37 PM 40.1369 -107.5129 78° East 483 556 37,000  Level FlightAware ADS-B
Fri 04:08:07 PM 40.1509 -107.4284 78° East 484 557 37,000  Level FlightAware ADS-B
Fri 04:08:40 PM 40.1661 -107.3355 78° East 476 548 37,000  Level FlightAware ADS-B
Fri 04:09:13 PM 40.1809 -107.2454 78° East 471 542 37,000  Level FlightAware ADS-B
Fri 04:09:44 PM 40.1953 -107.1572 78° East 468 539 37,000  Level FlightAware ADS-B
Fri 04:10:15 PM 40.2039 -107.1044 78° East 470 541 37,000  Level FlightAware ADS-B (EGNT / NCL)
Fri 04:10:46 PM 40.2220 -106.9927 78° East 475 547 37,000  Level FlightAware ADS-B (EGNT / NCL)
Fri 04:12:03 PM 40.2580 -106.7660 78° East 484 557 37,000  Level FlightAware ADS-B
Fri 04:12:04 PM 40.2586 -106.7632 74° East 484 557 37,000  Level FlightAware ADS-B (EGNT / NCL)
Fri 04:12:49 PM 40.2780 -106.6420 78° East 483 556 37,000  Level FlightAware ADS-B
Fri 04:13:10 PM 40.2886 -106.5736 78° East 484 557 37,000  Level FlightAware ADS-B (EGNT / NCL)
Fri 04:13:40 PM 40.3017 -106.4899 78° East 482 555 37,000  Level FlightAware ADS-B (EGNT / NCL)
Fri 04:14:35 PM 40.3260 -106.3320 79° East 477 549 37,000  Level FlightAware ADS-B
Fri 04:14:54 PM 40.3348 -106.2777 78° East 478 550 37,000  Level FlightAware ADS-B (EGNT / NCL)
Fri 04:15:43 PM 40.3560 -106.1390 79° East 482 555 37,000  Level FlightAware ADS-B
Fri 04:16:00 PM 40.3635 -106.0912 78° East 482 555 37,000  Level FlightAware ADS-B (EGNT / NCL)
Fri 04:16:31 PM 40.3775 -106.0055 78° East 486 559 37,000  Level FlightAware ADS-B (EGNT / NCL)
Fri 04:17:03 PM 40.3940 -105.9070 78° East 493 567 37,000  Level FlightAware ADS-B
Fri 04:17:14 PM 40.3929 -105.9141 258° West 494 568 37,000  Level FlightAware ADS-B (EGNT / NCL)
Fri 04:17:47 PM 40.4133 -105.7907 78° East 495 570 37,000  Level FlightAware ADS-B (EGNT / NCL)
Fri 04:18:42 PM 40.4408 -105.6224 78° East 489 563 37,000  Level FlightAware ADS-B (EGNT / NCL)
Fri 04:19:22 PM 40.4585 -105.5120 78° East 491 565 37,000  Level FlightAware ADS-B (EGNT / NCL)
Fri 04:19:58 PM 40.4760 -105.4039 78° East 491 565 37,000  Level FlightAware ADS-B (EGNT / NCL)
Fri 04:20:30 PM 40.4897 -105.3174 78° East 487 560 37,000  Level FlightAware ADS-B (EGNT / NCL)
Fri 04:21:00 PM 40.5052 -105.2199 78° East 485 558 37,000  Level FlightAware ADS-B (EGNT / NCL)
Fri 04:21:33 PM 40.5193 -105.1313 78° East 492 566 37,000  Level FlightAware ADS-B (EGNT / NCL)
Fri 04:22:03 PM 40.5330 -105.0438 78° East 497 572 37,000  Level FlightAware ADS-B (EGNT / NCL)
Fri 04:22:34 PM 40.5484 -104.9451 78° East 501 577 37,000  Level FlightAware ADS-B (EGNT / NCL)
Fri 04:23:07 PM 40.5616 -104.8601 78° East 499 574 37,000  Level FlightAware ADS-B (EGNT / NCL)
Fri 04:23:51 PM 40.5832 -104.7202 78° East 491 565 37,000  Level FlightAware ADS-B (EGNT / NCL)
Fri 04:24:37 PM 40.6035 -104.5877 79° East 485 558 37,000  Level FlightAware ADS-B (EGNT / NCL)
Fri 04:25:11 PM 40.6180 -104.4932 79° East 488 562 37,000  Level FlightAware ADS-B (EGNT / NCL)
Fri 04:25:47 PM 40.6350 -104.3820 79° East 494 568 37,000  Level FlightAware ADS-B
Fri 04:26:23 PM 40.6510 -104.2760 79° East 494 568 37,000  Level FlightAware ADS-B
Fri 04:26:57 PM 40.6660 -104.1740 79° East 500 575 37,000  Level FlightAware ADS-B
Fri 04:27:33 PM 40.6820 -104.0680 79° East 499 574 37,000  Level FlightAware ADS-B
Fri 04:28:10 PM 40.6980 -103.9562 79° East 492 566 37,000  Level FlightAware ADS-B (EGNT / NCL)
Fri 04:28:46 PM 40.7130 -103.8510 79° East 492 566 37,000  Level FlightAware ADS-B
Fri 04:29:04 PM 40.7199 -103.8062 78° East 496 571 37,000  Level FlightAware ADS-B (EGNT / NCL)
Fri 04:29:57 PM 40.7430 -103.6440 79° East 503 579 37,000  Level FlightAware ADS-B
Fri 04:30:32 PM 40.7590 -103.5320 79° East 504 580 37,000  Level FlightAware ADS-B
Fri 04:31:08 PM 40.7750 -103.4260 79° East 504 580 37,000  Level FlightAware ADS-B
Fri 04:31:27 PM 40.7710 -103.4510 258° West 505 581 37,000  Level FlightAware ADS-B (EGNT / NCL)
Fri 04:32:16 PM 40.8040 -103.2190 79° East 506 582 37,000  Level FlightAware ADS-B
Fri 04:32:54 PM 40.8200 -103.1040 80° East 507 583 37,000  Level FlightAware ADS-B
Fri 04:33:26 PM 40.8330 -103.0060 80° East 509 586 37,000  Level FlightAware ADS-B
Fri 04:34:03 PM 40.8480 -102.8960 80° East 510 587 37,000  Level FlightAware ADS-B
Fri 04:34:38 PM 40.8630 -102.7890 79° East 510 587 37,000  Level FlightAware ADS-B
Fri 04:35:11 PM 40.8760 -102.6910 80° East 509 586 37,000  Level FlightAware ADS-B
Fri 04:35:47 PM 40.8920 -102.5770 79° East 509 586 37,000  Level FlightAware ADS-B
Fri 04:36:25 PM 40.9070 -102.4600 80° East 510 587 37,000  Level FlightAware ADS-B
Fri 04:36:57 PM 40.9200 -102.3620 80° East 512 589 37,000  Level FlightAware ADS-B
Fri 04:37:53 PM 40.9420 -102.1950 80° East 508 585 37,000  Level FlightAware ADS-B
Fri 04:38:27 PM 40.9560 -102.0850 80° East 503 579 37,000  Level FlightAware ADS-B
Fri 04:39:08 PM 40.9710 -101.9730 80° East 505 581 37,000  Level FlightAware ADS-B
Fri 04:39:46 PM 40.9840 -101.8750 80° East 505 581 37,000  Level FlightAware ADS-B
Fri 04:40:21 PM 40.9960 -101.7840 80° East 505 581 37,000  Level FlightAware ADS-B
Fri 04:40:57 PM 41.0090 -101.6910 79° East 505 581 37,000  Level FlightAware ADS-B
Fri 04:41:33 PM 41.0210 -101.5970 80° East 505 581 37,000  Level FlightAware ADS-B
Fri 04:42:09 PM 41.0330 -101.5040 80° East 505 581 37,000  Level FlightAware ADS-B
Fri 04:42:46 PM 41.0460 -101.4080 80° East 505 581 37,000  Level FlightAware ADS-B
Fri 04:43:32 PM 41.0620 -101.2890 80° East 505 581 37,000  Level FlightAware ADS-B
Fri 04:44:08 PM 41.0740 -101.1950 80° East 505 581 37,000  Level FlightAware ADS-B
Fri 04:44:44 PM 41.0870 -101.1020 79° East 505 581 37,000  Level FlightAware ADS-B
Fri 04:45:23 PM 41.1000 -101.0010 80° East 505 581 37,000  Level FlightAware ADS-B
Fri 04:45:57 PM 41.1120 -100.9120 80° East 505 581 37,000  Level FlightAware ADS-B
Fri 04:46:34 PM 41.1250 -100.8160 80° East 505 581 37,000  Level FlightAware ADS-B
Fri 04:47:10 PM 41.1370 -100.7230 80° East 505 581 37,000  Level FlightAware ADS-B
Fri 04:47:46 PM 41.1500 -100.6290 80° East 505 581 37,000  Level FlightAware ADS-B
Fri 04:48:23 PM 41.1620 -100.5330 81° East 505 581 37,000  Level FlightAware ADS-B
Fri 04:52:00 PM 41.2584 -99.5174 82° East 532 612 37,000  Level FlightAware ADS-B
Fri 04:54:02 PM 41.2997 -99.1213 82° East 538 619 37,000  Level FlightAware ADS-B
Fri 04:55:45 PM 41.3215 -98.9070 82° East 536 617 37,000  Level FlightAware ADS-B
Fri 04:57:05 PM 41.3590 -98.5250 82° East 541 623 37,000  Level FlightAware ADS-B
Fri 04:57:42 PM 41.3720 -98.4030 82° East 539 620 37,000  Level FlightAware ADS-B
Fri 04:58:24 PM 41.3920 -98.2880 77° East 538 619 37,000  Level FlightAware ADS-B
Fri 04:58:40 PM 41.4190 -98.2220 61° Northeast 538 619 37,000  Level FlightAware ADS-B
Fri 04:59:22 PM 41.4600 -98.0940 67° East 539 620 37,000  Level FlightAware ADS-B
Fri 04:59:59 PM 41.4960 -97.9810 67° East 540 621 37,000  Level FlightAware ADS-B
Fri 05:00:27 PM 41.5210 -97.9060 66° East 540 621 37,000  Level FlightAware ADS-B
Fri 05:01:08 PM 41.5640 -97.7720 67° East 539 620 37,000  Level FlightAware ADS-B
Fri 05:01:45 PM 41.6010 -97.6580 67° East 540 621 37,000  Level FlightAware ADS-B
Fri 05:02:18 PM 41.6320 -97.5610 67° East 542 624 37,000  Level FlightAware ADS-B
Fri 05:02:50 PM 41.6630 -97.4620 67° East 542 624 37,000  Level FlightAware ADS-B
Fri 05:03:27 PM 41.7000 -97.3470 67° East 541 623 37,000  Level FlightAware ADS-B
Fri 05:04:01 PM 41.7330 -97.2420 67° East 541 623 37,000  Level FlightAware ADS-B
Fri 05:04:37 PM 41.7690 -97.1280 67° East 541 623 37,000  Level FlightAware ADS-B
Fri 05:05:14 PM 41.8030 -97.0190 67° East 540 621 37,000  Level FlightAware ADS-B
Fri 05:05:48 PM 41.8380 -96.9070 67° East 542 624 37,000  Level FlightAware ADS-B
Fri 05:06:21 PM 41.8690 -96.8080 67° East 544 626 37,000  Level FlightAware ADS-B
Fri 05:07:00 PM 41.9070 -96.6840 68° East 547 629 37,000  Level FlightAware ADS-B
Fri 05:07:31 PM 41.9360 -96.5900 67° East 547 629 37,000  Level FlightAware ADS-B
Fri 05:08:07 PM 41.9710 -96.4750 68° East 547 629 37,000  Level FlightAware ADS-B
Fri 05:08:40 PM 42.0030 -96.3720 67° East 547 629 37,000  Level FlightAware ADS-B
Fri 05:09:19 PM 42.0320 -96.2450 73° East 547 629 37,000  Level FlightAware ADS-B
Fri 05:09:52 PM 42.0470 -96.1360 79° East 546 628 37,000  Level FlightAware ADS-B
Fri 05:10:15 PM 42.0535 -96.0660 83° East 546 628 37,000  Level FlightAware ADS-B
Fri 05:10:45 PM 42.0638 -95.9554 83° East 546 628 37,000  Level FlightAware ADS-B
Fri 05:11:32 PM 42.0705 -95.8831 83° East 546 628 37,000  Level FlightAware ADS-B
Fri 05:12:11 PM 42.0890 -95.6690 83° East 546 628 37,000  Level FlightAware ADS-B
Fri 05:12:53 PM 42.1008 -95.5327 83° East 546 628 37,000  Level FlightAware ADS-B
Fri 05:13:23 PM 42.1100 -95.4250 83° East 544 626 37,000  Level FlightAware ADS-B
Fri 05:13:56 PM 42.1180 -95.3190 84° East 545 627 37,000  Level FlightAware ADS-B
Fri 05:14:30 PM 42.1280 -95.2000 83° East 548 631 37,000  Level FlightAware ADS-B
Fri 05:15:08 PM 42.1380 -95.0730 84° East 550 633 37,000  Level FlightAware ADS-B
Fri 05:15:44 PM 42.1480 -94.9490 84° East 552 635 37,000  Level FlightAware ADS-B
Fri 05:16:01 PM 42.1523 -94.8889 84° East 553 636 37,000  Level FlightAware ADS-B
Fri 05:16:56 PM 42.1656 -94.7136 84° East 555 639 37,000  Level FlightAware ADS-B (LPVM)
Fri 05:17:06 PM 42.1691 -94.6662 84° East 556 640 37,000  Level FlightAware ADS-B
Fri 05:18:04 PM 42.1840 -94.4660 84° East 553 636 37,000  Level FlightAware ADS-B
Fri 05:18:39 PM 42.1930 -94.3450 84° East 554 638 37,000  Level FlightAware ADS-B
Fri 05:18:41 PM 42.1934 -94.3379 86° East 555 639 37,000  Level FlightAware ADS-B (LPVM)
Fri 05:18:48 PM 42.1903 -94.3801 264° West 555 639 37,000  Level FlightAware ADS-B
Fri 05:19:50 PM 42.2100 -94.1080 84° East 556 640 37,000  Level FlightAware ADS-B
Fri 05:20:30 PM 42.2211 -93.9629 84° East 557 641 37,000  Level FlightAware ADS-B
Fri 05:21:38 PM 42.2380 -93.7260 84° East 561 646 37,000  Level FlightAware ADS-B
Fri 05:21:51 PM 42.2407 -93.6918 84° East 562 647 37,000  Level FlightAware ADS-B
Fri 05:22:10 PM 42.2416 -93.6782 85° East 561 646 37,000  Level FlightAware ADS-B (LPVM)
Fri 05:22:50 PM 42.2560 -93.4780 84° East 556 640 37,000  Level FlightAware ADS-B
Fri 05:23:27 PM 42.2640 -93.3510 85° East 555 639 37,000  Level FlightAware ADS-B
Fri 05:23:33 PM 42.2656 -93.3292 84° East 555 639 37,000  Level FlightAware ADS-B (LPVM)
Fri 05:24:35 PM 42.2800 -93.1190 85° East 557 641 37,000  Level FlightAware ADS-B
Fri 05:25:10 PM 42.2870 -92.9980 85° East 559 643 37,000  Level FlightAware ADS-B
Fri 05:25:36 PM 42.2919 -92.9284 85° East 561 646 37,000  Level FlightAware ADS-B (LPVM)
Fri 05:26:21 PM 42.3030 -92.7510 85° East 561 646 37,000  Level FlightAware ADS-B
Fri 05:26:25 PM 42.3041 -92.7332 85° East 561 646 37,000  Level FlightAware ADS-B (LPVM)
Fri 05:26:59 PM 42.3115 -92.6149 85° East 562 647 37,000  Level FlightAware ADS-B (LPVM)
Fri 05:27:29 PM 42.3181 -92.5065 85° East 559 643 37,000  Level FlightAware ADS-B (LPVM)
Fri 05:28:04 PM 42.3250 -92.3940 85° East 558 642 37,000  Level FlightAware ADS-B
Fri 05:28:19 PM 42.3284 -92.3347 86° East 559 643 37,000  Level FlightAware ADS-B (LPVM)
Fri 05:28:51 PM 42.3344 -92.2320 85° East 559 643 37,000  Level FlightAware ADS-B (LPVM)
Fri 05:29:29 PM 42.3423 -92.0925 86° East 561 646 37,000  Level FlightAware ADS-B (LPVM)
Fri 05:30:10 PM 42.3503 -91.9485 86° East 562 647 37,000  Level FlightAware ADS-B (LPVM)
Fri 05:30:49 PM 42.3576 -91.8136 86° East 562 647 37,000  Level FlightAware ADS-B (LPVM)
Fri 05:31:35 PM 42.3660 -91.6610 86° East 561 646 37,000  Level FlightAware ADS-B
Fri 05:32:11 PM 42.3720 -91.5370 86° East 563 648 37,000  Level FlightAware ADS-B
Fri 05:32:44 PM 42.3780 -91.4250 86° East 560 644 37,000  Level FlightAware ADS-B
Fri 05:33:19 PM 42.3840 -91.2990 86° East 560 644 37,000  Level FlightAware ADS-B
Fri 05:33:55 PM 42.3910 -91.1710 86° East 559 643 37,000  Level FlightAware ADS-B
Fri 05:34:28 PM 42.3960 -91.0580 87° East 559 643 37,000  Level FlightAware ADS-B
Fri 05:35:05 PM 42.4020 -90.9270 86° East 561 646 37,000  Level FlightAware ADS-B
Fri 05:35:40 PM 42.4080 -90.8010 86° East 561 646 37,000  Level FlightAware ADS-B
Fri 05:35:59 PM 42.4090 -90.7765 87° East 561 646 37,000  Level FlightAware ADS-B (LPVM)
Fri 05:36:48 PM 42.4180 -90.5660 87° East 560 644 37,000  Level FlightAware ADS-B
Fri 05:37:26 PM 42.4240 -90.4310 87° East 560 644 37,000  Level FlightAware ADS-B
Fri 05:37:57 PM 42.4290 -90.3230 86° East 558 642 37,000  Level FlightAware ADS-B
Fri 05:38:34 PM 42.4340 -90.1960 87° East 558 642 37,000  Level FlightAware ADS-B
Fri 05:39:13 PM 42.4390 -90.0600 87° East 558 642 37,000  Level FlightAware ADS-B
Fri 05:39:45 PM 42.4430 -89.9480 87° East 558 642 37,000  Level FlightAware ADS-B
Fri 05:40:20 PM 42.4480 -89.8260 87° East 557 641 37,000  Level FlightAware ADS-B
Fri 05:40:54 PM 42.4520 -89.7070 87° East 559 643 37,000  Level FlightAware ADS-B
Fri 05:41:29 PM 42.4560 -89.5840 87° East 561 646 37,000  Level FlightAware ADS-B
Fri 05:42:04 PM 42.4600 -89.4620 87° East 562 647 37,000  Level FlightAware ADS-B
Fri 05:42:38 PM 42.4640 -89.3400 87° East 562 647 37,000  Level FlightAware ADS-B
Fri 05:43:15 PM 42.4680 -89.2160 87° East 562 647 37,000  Level FlightAware ADS-B
Fri 05:43:52 PM 42.4730 -89.0810 87° East 562 647 37,000  Level FlightAware ADS-B
Fri 05:44:26 PM 42.4760 -88.9620 88° East 562 647 37,000  Level FlightAware ADS-B
Fri 05:44:59 PM 42.4800 -88.8460 87° East 563 648 37,000  Level FlightAware ADS-B
Fri 05:45:34 PM 42.4830 -88.7240 88° East 564 649 37,000  Level FlightAware ADS-B
Fri 05:46:11 PM 42.4860 -88.5950 88° East 565 650 37,000  Level FlightAware ADS-B
Fri 05:46:47 PM 42.4890 -88.4650 88° East 563 648 37,000  Level FlightAware ADS-B
Fri 05:47:20 PM 42.4920 -88.3510 88° East 561 646 37,000  Level FlightAware ADS-B
Fri 05:47:57 PM 42.4950 -88.2210 88° East 560 644 37,000  Level FlightAware ADS-B
Fri 05:48:32 PM 42.4980 -88.0980 88° East 558 642 37,000  Level FlightAware ADS-B
Fri 05:49:04 PM 42.5000 -87.9940 88° East 556 640 37,000  Level FlightAware ADS-B
Fri 05:49:41 PM 42.5010 -87.8580 89° East 553 636 37,000  Level FlightAware ADS-B
Fri 05:50:16 PM 42.5000 -87.7390 91° East 557 641 37,000  Level FlightAware ADS-B
Fri 05:50:53 PM 42.4990 -87.6100 91° East 562 647 37,000  Level FlightAware ADS-B
Fri 05:51:31 PM 42.4990 -87.4750 90° East 563 648 37,000  Level FlightAware ADS-B
Fri 05:52:09 PM 42.4980 -87.3470 91° East 565 650 37,000  Level FlightAware ADS-B
Fri 05:52:45 PM 42.4970 -87.2140 91° East 566 651 37,000  Level FlightAware ADS-B
Fri 05:53:17 PM 42.4970 -87.1010 90° East 568 654 37,000  Level FlightAware ADS-B
Fri 05:53:53 PM 42.4960 -86.9830 91° East 568 654 37,000  Level FlightAware ADS-B
Fri 05:54:29 PM 42.4950 -86.8490 91° East 567 652 37,000  Level FlightAware ADS-B
Fri 05:55:06 PM 42.4930 -86.7280 91° East 566 651 37,000  Level FlightAware ADS-B
Fri 05:55:47 PM 42.4920 -86.5780 90° East 567 652 37,000  Level FlightAware ADS-B
Fri 05:56:19 PM 42.4900 -86.4620 91° East 569 655 37,000  Level FlightAware ADS-B
Fri 05:56:55 PM 42.4880 -86.3320 91° East 568 654 37,000  Level FlightAware ADS-B
Fri 05:57:31 PM 42.4870 -86.2030 91° East 568 654 37,000  Level FlightAware ADS-B
Fri 05:58:03 PM 42.4850 -86.0870 91° East 567 652 37,000  Level FlightAware ADS-B
Fri 05:58:40 PM 42.4830 -85.9620 91° East 568 654 37,000  Level FlightAware ADS-B
Fri 05:59:19 PM 42.4800 -85.8260 92° East 568 654 37,000  Level FlightAware ADS-B
Fri 05:59:58 PM 42.4770 -85.6820 92° East 570 656 37,000  Level FlightAware ADS-B
Fri 06:00:33 PM 42.4750 -85.5630 91° East 572 658 37,000  Level FlightAware ADS-B
Fri 06:01:03 PM 42.4720 -85.4500 92° East 574 661 37,000  Level FlightAware ADS-B
Fri 06:01:37 PM 42.4700 -85.3270 91° East 574 661 37,000  Level FlightAware ADS-B
Fri 06:02:15 PM 42.4660 -85.1930 92° East 574 661 37,000  Level FlightAware ADS-B
Fri 06:02:59 PM 42.4630 -85.0350 91° East 576 663 37,000  Level FlightAware ADS-B
Fri 06:03:28 PM 42.4600 -84.9290 92° East 574 661 37,000  Level FlightAware ADS-B
Fri 06:04:06 PM 42.4560 -84.7910 92° East 571 657 37,000  Level FlightAware ADS-B
Fri 06:04:41 PM 42.4530 -84.6740 92° East 571 657 37,000  Level FlightAware ADS-B
Fri 06:05:17 PM 42.4490 -84.5490 92° East 570 656 37,000  Level FlightAware ADS-B
Fri 06:05:54 PM 42.4430 -84.4130 93° East 569 655 37,000  Level FlightAware ADS-B
Fri 06:06:28 PM 42.4350 -84.2870 95° East 571 657 37,000  Level FlightAware ADS-B
Fri 06:07:04 PM 42.4270 -84.1580 95° East 572 658 37,000  Level FlightAware ADS-B
Fri 06:07:38 PM 42.4200 -84.0370 94° East 573 659 37,000  Level FlightAware ADS-B
Fri 06:08:13 PM 42.4130 -83.9190 95° East 573 659 37,000  Level FlightAware ADS-B
Fri 06:08:48 PM 42.4040 -83.7870 95° East 573 659 37,000  Level FlightAware ADS-B
Fri 06:09:24 PM 42.3960 -83.6600 95° East 573 659 37,000  Level FlightAware ADS-B
Fri 06:10:00 PM 42.3870 -83.5310 95° East 572 658 37,000  Level FlightAware ADS-B
Fri 06:10:34 PM 42.3790 -83.4110 95° East 571 657 37,000  Level FlightAware ADS-B
Fri 06:11:08 PM 42.3720 -83.2960 95° East 570 656 37,000  Level FlightAware ADS-B
Fri 06:11:59 PM 42.3600 -83.1350 96° East 570 656 37,000  Level FlightAware ADS-B
Fri 06:12:31 PM 42.3510 -83.0050 95° East 572 658 37,000  Level FlightAware ADS-B
Fri 06:13:05 PM 42.3420 -82.8780 95° East 573 659 37,000  Level FlightAware ADS-B
Fri 06:13:44 PM 42.3320 -82.7380 95° East 573 659 37,000  Level FlightAware ADS-B
Fri 06:14:20 PM 42.3220 -82.6100 96° East 572 658 37,000  Level FlightAware ADS-B
Fri 06:14:52 PM 42.3140 -82.4960 95° East 571 657 37,000  Level FlightAware ADS-B
Fri 06:15:26 PM 42.3040 -82.3740 96° East 571 657 37,000  Level FlightAware ADS-B
Fri 06:16:04 PM 42.2940 -82.2400 96° East 570 656 37,000  Level FlightAware ADS-B
Fri 06:16:40 PM 42.2840 -82.1170 96° East 568 654 37,000  Level FlightAware ADS-B
Fri 06:17:08 PM 42.2760 -82.0130 96° East 568 654 37,000  Level FlightAware ADS-B
Fri 06:17:48 PM 42.2650 -81.8840 97° East 568 654 37,000  Level FlightAware ADS-B
Fri 06:18:20 PM 42.2560 -81.7670 96° East 569 655 37,000  Level FlightAware ADS-B
Fri 06:18:57 PM 42.2440 -81.6310 97° East 569 655 37,000  Level FlightAware ADS-B
Fri 06:19:32 PM 42.2340 -81.5070 96° East 569 655 37,000  Level FlightAware ADS-B
Fri 06:20:05 PM 42.2240 -81.3920 97° East 568 654 37,000  Level FlightAware ADS-B
Fri 06:20:41 PM 42.2130 -81.2640 97° East 568 654 37,000  Level FlightAware ADS-B
Fri 06:21:14 PM 42.2030 -81.1490 97° East 568 654 37,000  Level FlightAware ADS-B
Fri 06:21:52 PM 42.1910 -81.0150 97° East 570 656 37,000  Level FlightAware ADS-B
Fri 06:22:29 PM 42.1800 -80.8860 97° East 570 656 37,000  Level FlightAware ADS-B
Fri 06:23:02 PM 42.1690 -80.7710 97° East 568 654 37,000  Level FlightAware ADS-B
Fri 06:23:37 PM 42.1580 -80.6490 97° East 567 652 37,000  Level FlightAware ADS-B
Fri 06:24:11 PM 42.1470 -80.5280 97° East 567 652 37,000  Level FlightAware ADS-B
Fri 06:24:44 PM 42.1360 -80.4140 97° East 568 654 37,000  Level FlightAware ADS-B
Fri 06:25:22 PM 42.1230 -80.2780 97° East 568 654 37,000  Level FlightAware ADS-B
Fri 06:25:59 PM 42.1110 -80.1500 97° East 564 649 37,000  Level FlightAware ADS-B
Fri 06:26:35 PM 42.0990 -80.0270 97° East 562 647 37,000  Level FlightAware ADS-B
Fri 06:27:06 PM 42.0890 -79.9210 97° East 562 647 37,000  Level FlightAware ADS-B
Fri 06:27:42 PM 42.0760 -79.7930 98° East 563 648 37,000  Level FlightAware ADS-B
Fri 06:28:17 PM 42.0640 -79.6770 98° East 564 649 37,000  Level FlightAware ADS-B
Fri 06:28:52 PM 42.0520 -79.5560 98° East 565 650 37,000  Level FlightAware ADS-B
Fri 06:29:29 PM 42.0380 -79.4230 98° East 564 649 37,000  Level FlightAware ADS-B
Fri 06:30:05 PM 42.0260 -79.3010 98° East 563 648 37,000  Level FlightAware ADS-B
Fri 06:30:38 PM 42.0140 -79.1890 98° East 563 648 37,000  Level FlightAware ADS-B
Fri 06:31:12 PM 42.0010 -79.0710 98° East 563 648 37,000  Level FlightAware ADS-B
Fri 06:31:44 PM 41.9890 -78.9590 98° East 563 648 37,000  Level FlightAware ADS-B
Fri 06:32:26 PM 41.9740 -78.8180 98° East 562 647 37,000  Level FlightAware ADS-B
Fri 06:32:58 PM 41.9610 -78.7010 98° East 562 647 37,000  Level FlightAware ADS-B
Fri 06:33:34 PM 41.9480 -78.5810 98° East 564 649 37,000  Level FlightAware ADS-B
Fri 06:34:10 PM 41.9340 -78.4510 98° East 563 648 37,000  Level FlightAware ADS-B
Fri 06:34:42 PM 41.9220 -78.3430 98° East 561 646 37,000  Level FlightAware ADS-B
Fri 06:35:20 PM 41.9070 -78.2160 99° East 560 644 37,000  Level FlightAware ADS-B
Fri 06:35:57 PM 41.8920 -78.0850 99° East 560 644 37,000  Level FlightAware ADS-B
Fri 06:36:28 PM 41.8800 -77.9770 98° East 562 647 37,000  Level FlightAware ADS-B
Fri 06:37:05 PM 41.8620 -77.8540 101° East 559 643 37,000  Level FlightAware ADS-B
Fri 06:37:38 PM 41.8360 -77.7440 108° East 552 635 37,000  Level FlightAware ADS-B
Fri 06:38:14 PM 41.8060 -77.6270 109° East 549 632 37,000  Level FlightAware ADS-B
Fri 06:38:47 PM 41.7780 -77.5230 110° East 549 632 37,000  Level FlightAware ADS-B
Fri 06:39:23 PM 41.7480 -77.4100 110° East 550 633 37,000  Level FlightAware ADS-B
Fri 06:39:57 PM 41.7180 -77.2990 110° East 550 633 37,000  Level FlightAware ADS-B
Fri 06:40:31 PM 41.6900 -77.1940 110° East 549 632 37,000  Level FlightAware ADS-B
Fri 06:41:07 PM 41.6580 -77.0760 110° East 549 632 37,000  Level FlightAware ADS-B
Fri 06:41:42 PM 41.6280 -76.9640 110° East 551 634 37,000  Level FlightAware ADS-B
Fri 06:42:12 PM 41.6020 -76.8700 110° East 552 635 37,000  Level FlightAware ADS-B
Fri 06:42:55 PM 41.5640 -76.7300 110° East 552 635 37,000  Level FlightAware ADS-B
Fri 06:43:30 PM 41.5340 -76.6190 110° East 554 638 37,000  Level FlightAware ADS-B
Fri 06:44:02 PM 41.5060 -76.5200 111° Southeast 557 641 37,000  Level FlightAware ADS-B
Fri 06:44:39 PM 41.4740 -76.4040 110° East 559 643 37,000  Level FlightAware ADS-B
Fri 06:45:13 PM 41.4450 -76.2970 110° East 564 649 37,000 -86 Level FlightAware ADS-B
Fri 06:45:49 PM 41.4110 -76.1790 111° Southeast 563 648 36,900 -1,000 Descending FlightAware ADS-B
Fri 06:46:25 PM 41.3780 -76.0610 110° East 561 646 35,800 -2,647 Descending FlightAware ADS-B
Fri 06:46:57 PM 41.3480 -75.9550 111° Southeast 569 655 33,900 -3,529 Descending FlightAware ADS-B
Fri 06:47:33 PM 41.3130 -75.8310 111° Southeast 573 659 31,800 -3,417 Descending FlightAware ADS-B
Fri 06:48:09 PM 41.2790 -75.7120 111° Southeast 571 657 29,800 -3,583 Descending FlightAware ADS-B
Fri 06:48:45 PM 41.2430 -75.5980 113° Southeast 570 656 27,500 -3,618 Descending FlightAware ADS-B
Fri 06:49:17 PM 41.2110 -75.5030 114° Southeast 563 648 25,700 -3,134 Descending FlightAware ADS-B
Fri 06:49:52 PM 41.1730 -75.3890 114° Southeast 543 625 24,000 -2,137 Descending FlightAware ADS-B
Fri 06:50:30 PM 41.1330 -75.2720 114° Southeast 533 613 23,100 -822 Descending FlightAware ADS-B
Fri 06:51:05 PM 41.0980 -75.1680 114° Southeast 530 610 23,000 -88 Descending FlightAware ADS-B
Fri 06:51:38 PM 41.0650 -75.0710 114° Southeast 533 613 23,000  Level FlightAware ADS-B
Fri 06:52:13 PM 41.0320 -74.9750 114° Southeast 532 612 23,000  Level FlightAware ADS-B
Fri 06:52:52 PM 40.9970 -74.8520 111° Southeast 529 609 23,000 -468 Level FlightAware ADS-B
Fri 06:53:30 PM 40.9800 -74.7260 100° East 519 597 22,400 -1,167 Descending FlightAware ADS-B
Fri 06:54:04 PM 40.9690 -74.6210 98° East 506 582 21,600 -1,417 Descending FlightAware ADS-B
Fri 06:54:42 PM 40.9570 -74.5070 98° East 497 572 20,700 -1,500 Descending FlightAware ADS-B
Fri 06:55:12 PM 40.9470 -74.4190 99° East 486 559 19,900 -1,478 Descending FlightAware ADS-B
Fri 06:55:51 PM 40.9340 -74.3050 99° East 477 549 19,000 -711 Descending FlightAware ADS-B
Fri 06:56:28 PM 40.9230 -74.2030 98° East 425 489 19,000  Level FlightAware ADS-B
Fri 06:56:48 PM 40.9150 -74.1540 102° East 390 449 19,000  Level FlightAware ADS-B
Fri 06:57:05 PM 40.9020 -74.1230 119° Southeast 373 429 19,000  Level FlightAware ADS-B
Fri 06:57:16 PM 40.8900 -74.1050 131° Southeast 359 413 19,000  Level FlightAware ADS-B
Fri 06:57:31 PM 40.8681 -74.0847 145° Southeast 340 391 19,000 -150 Level FlightAware ADS-B
Fri 06:57:56 PM 40.8361 -74.0650 155° Southeast 338 389 18,900 -364 Descending FlightAware ADS-B (KSNC)
Fri 06:58:04 PM 40.8213 -74.0562 156° South 338 389 18,800 -1,231 Descending FlightAware ADS-B
Fri 06:58:35 PM 40.7768 -74.0300 156° South 331 381 18,100 -1,417 Descending FlightAware ADS-B
Fri 06:59:16 PM 40.7230 -73.9990 156° South 326 375 17,100 -1,612 Descending FlightAware ADS-B
Fri 06:59:42 PM 40.6844 -73.9771 157° South 324 373 16,300 -1,701 Descending FlightAware ADS-B (KSNC)
Fri 07:00:23 PM 40.6290 -73.9460 157° South 322 371 15,200 -1,688 Descending FlightAware ADS-B
Fri 07:00:46 PM 40.5967 -73.9281 157° South 323 372 14,500 -1,644 Descending FlightAware ADS-B (KSNC)
Fri 07:01:36 PM 40.5280 -73.8900 157° South 321 369 13,200 -1,481 Descending FlightAware ADS-B
Fri 07:02:07 PM 40.4870 -73.8680 158° South 313 360 12,500 -1,404 Descending FlightAware ADS-B
Fri 07:02:23 PM 40.4660 -73.8510 148° Southeast 324 373 12,100 -1,655 Descending FlightAware ADS-B
Fri 07:02:36 PM 40.4540 -73.8310 128° Southeast 326 375 11,700 -1,837 Descending FlightAware ADS-B
Fri 07:03:12 PM 40.4270 -73.7740 122° Southeast 320 368 10,600 -2,069 Descending FlightAware ADS-B
Fri 07:03:34 PM 40.4080 -73.7350 123° Southeast 317 365 9,700 -2,250 Descending FlightAware ADS-B
Fri 07:03:44 PM 40.4010 -73.7210 123° Southeast 316 364 9,400 -2,400 Descending FlightAware ADS-B
Fri 07:04:09 PM 40.3810 -73.6790 122° Southeast 314 361 8,300 -2,600 Descending FlightAware ADS-B
Fri 07:04:14 PM 40.3780 -73.6690 111° Southeast 315 362 8,100 -1,846 Descending FlightAware ADS-B
Fri 07:04:22 PM 40.3760 -73.6550 101° East 314 361 7,900 -2,000 Descending FlightAware ADS-B
Fri 07:04:26 PM 40.3760 -73.6470 90° East 312 359 7,700 -2,077 Descending FlightAware ADS-B
Fri 07:04:48 PM 40.3850 -73.6110 72° East 302 348 7,000 -1,846 Descending FlightAware ADS-B
Fri 07:05:05 PM 40.3990 -73.5880 51° Northeast 300 345 6,500 -2,000 Descending FlightAware ADS-B
Fri 07:05:09 PM 40.4040 -73.5810 47° Northeast 297 342 6,300 -1,667 Descending FlightAware ADS-B
Fri 07:05:23 PM 40.4200 -73.5660 36° Northeast 288 331 6,000 -1,071 Descending FlightAware ADS-B
Fri 07:05:37 PM 40.4350 -73.5550 29° Northeast 279 321 5,800 -973 Descending FlightAware ADS-B
Fri 07:06:00 PM 40.4620 -73.5400 23° Northeast 270 311 5,400 -1,200 Descending FlightAware ADS-B
Fri 07:06:22 PM 40.4880 -73.5260 22° Northeast 265 305 4,900 -1,105 Descending FlightAware ADS-B
Fri 07:06:38 PM 40.5060 -73.5180 19° North 260 299 4,700 -1,024 Descending FlightAware ADS-B
Fri 07:07:03 PM 40.5350 -73.5050 19° North 258 297 4,200 -1,333 Descending FlightAware ADS-B
Fri 07:07:23 PM 40.5580 -73.4950 18° North 258 297 3,700 -1,429 Descending FlightAware ADS-B
Fri 07:07:45 PM 40.5830 -73.4840 18° North 255 293 3,200 -1,400 Descending FlightAware ADS-B
Fri 07:07:53 PM 40.5920 -73.4820 10° North 251 289 3,000 -429 Descending FlightAware ADS-B
Fri 07:08:13 PM 40.6140 -73.4820 360° North 227 261 3,000  Level FlightAware ADS-B
Fri 07:08:21 PM 40.6220 -73.4820 360° North 217 250 3,000  Level FlightAware ADS-B
Fri 07:08:33 PM 40.6340 -73.4850 349° North 197 227 3,000  Level FlightAware ADS-B
Fri 07:08:41 PM 40.6400 -73.4890 333° Northwest 187 215 3,000  Level FlightAware ADS-B
Fri 07:09:02 PM 40.6550 -73.5000 331° Northwest 175 201 3,000  Level FlightAware ADS-B
Fri 07:09:22 PM 40.6680 -73.5110 327° Northwest 175 201 3,000  Level FlightAware ADS-B
Fri 07:09:45 PM 40.6850 -73.5240 330° Northwest 175 201 3,000 -167 Level FlightAware ADS-B
Fri 07:09:58 PM 40.6930 -73.5310 326° Northwest 175 201 2,900 -563 Descending FlightAware ADS-B
Fri 07:10:17 PM 40.7070 -73.5420 329° Northwest 175 201 2,700 -558 Descending FlightAware ADS-B
Fri 07:10:41 PM 40.7240 -73.5540 332° Northwest 174 200 2,500 -533 Descending FlightAware ADS-B
Fri 07:11:02 PM 40.7370 -73.5650 327° Northwest 174 200 2,300 -585 Descending FlightAware ADS-B
Fri 07:11:22 PM 40.7520 -73.5750 333° Northwest 174 200 2,100 -581 Descending FlightAware ADS-B
Fri 07:11:33 PM 40.7600 -73.5820 326° Northwest 172 198 2,000 -162 Descending FlightAware ADS-B
Fri 07:11:59 PM 40.7760 -73.5970 325° Northwest 171 197 2,000  Level FlightAware ADS-B
Fri 07:12:05 PM 40.7780 -73.6030 294° West 169 194 2,000  Level FlightAware ADS-B
Fri 07:12:13 PM 40.7780 -73.6120 270° West 169 194 2,000  Level FlightAware ADS-B
Fri 07:12:21 PM 40.7760 -73.6190 249° West 171 197 2,000  Level FlightAware ADS-B
Fri 07:12:25 PM 40.7740 -73.6240 242° Southwest 172 198 2,000  Level FlightAware ADS-B
Fri 07:12:42 PM 40.7670 -73.6380 237° Southwest 175 201 2,000  Level FlightAware ADS-B
Fri 07:13:01 PM 40.7570 -73.6550 232° Southwest 175 201 2,000 -154 Level FlightAware ADS-B
Fri 07:13:21 PM 40.7470 -73.6720 232° Southwest 178 205 1,900 -200 Descending FlightAware ADS-B
Fri 07:13:31 PM 40.7410 -73.6780 217° Southwest 178 205 1,900 -207 Level FlightAware ADS-B
Fri 07:13:50 PM 40.7280 -73.6900 215° Southwest 177 204 1,800 -558 Descending FlightAware ADS-B
Fri 07:14:14 PM 40.7110 -73.7030 210° Southwest 171 197 1,500 -667 Descending FlightAware ADS-B
Fri 07:14:26 PM 40.7040 -73.7090 213° Southwest 162 186 1,400 -727 Descending FlightAware ADS-B
Fri 07:14:47 PM 40.6910 -73.7190 210° Southwest 139 160 1,100 -800 Descending FlightAware ADS-B
Fri 07:15:11 PM 40.6790 -73.7280 210° Southwest 126 145 800 -682 Descending FlightAware ADS-B
Fri 07:15:31 PM 40.6690 -73.7370 214° Southwest 127 146 600 -581 Descending FlightAware ADS-B
Fri 07:15:42 PM 40.6630 -73.7410 207° Southwest 126 145 500 -686 Descending FlightAware ADS-B
Fri 07:16:06 PM 40.6510 -73.7500 210° Southwest 126 145 200 -750 Descending FlightAware ADS-B
Fri 07:16:24 PM 40.6420 -73.7570 211° Southwest 123 142 -667 Descending FlightAware ADS-B

Login

Don't have an account? Register now (free) for customized features, flight alerts, and more!